Ipswich, MA

3:29 PM EDT on August 27, 2015 (GMT -0400)
Ipswich Fire Dept. HQ | | Change Station
CLOSE
Current Station
Personal Weather Station
Location: Ipswich, MA
Elevation: 35 ft
Nearby Weather Stations

Elev 35 ft 42.68 °N, 70.84 °W | Updated 4 minutes ago

Mostly Cloudy
Mostly Cloudy
77.9 °F
Feels Like 80 °F
N
2.0
Wind Variable Wind from WNW
Gusts 10.0 mph

Today
High -- | Low -- °F
--% Chance of Precip.
Yesterday
High -- | Low -- °F
Precip. -- in
6:02 AM 7:26 PM
Waxing Gibbous, 94% visible
Pressure 29.94 in
Visibility 10.0 miles
Clouds Few 5500 ft
Scattered Clouds 9500 ft
Heat Index 80 °F
Dew Point 62 °F
Humidity 58%
Rainfall Not available.
Snow Depth Not available.
UV 2.7 out of 12
Pollen 10.10 out of 12
Air Quality Not available.
Flu Activity Not available.
METAR KBVY 271853Z 28008KT 10SM FEW055 SCT095 27/13 A2995 RMK AO2 SLP137 T02670133
Pressure 29.94 in
Visibility 10.0 miles
Clouds Few 5500 ft
Scattered Clouds 9500 ft
Heat Index 80 °F
Dew Point 62 °F
Humidity 58%
Rainfall Not available.
Snow Depth Not available.
UV 2.7 out of 12
Pollen 10.10 out of 12
Air Quality Not available.
Flu Activity Not available.
METAR KBVY 271853Z 28008KT 10SM FEW055 SCT095 27/13 A2995 RMK AO2 SLP137 T02670133

10-Day Weather Forecast

×

Almanac

Astronomy

Aug. 27, 2015 Rise Set
Actual Time
Civil Twilight
Nautical Twilight
Astronomical Twilight
Moon
Length of Visible Light
Length of Day
Tomorrow will be .
, % of the Moon is Illuminated

Today's Extremes

State Highs State Lows

Community

WunderPhotos

Upload Photos

1,850,195 photos uploaded!

WunderBlogs® & News

Nearby

Air Quality

  Air Quality AQ Index Pollutant
Not available.

Snow Depth

Station Depth Elevation

Earthquake Activity

City Distance Mag. Time & Date
Minimum magnitude displayed is 2.5.

Coastal Water Temperatures

Place Temperature

Stations

Nearby Weather Stations

Station Location Temp. Windchill Dew Point Humidity Wind Precip. Elev Updated Type